Terminal Aerodrome Forecast
Issued by NWS

Home | Current Version | Previous Version | Text Only | Print | Product List | Glossary On
Versions: 1 2 3 4 5 6 7 8 9 10 11 12 13
000
FTUS45 KVEF 220536
TAFDAG
TAF
KDAG 220536Z 2206/2306 25015G25KT P6SM SCT100 BKN150
     FM222000 26015G25KT P6SM VCSH SCT080 BKN100
     FM222300 24022G32KT P6SM VCSH SCT080 BKN100=

USA.gov is the U.S. government's official web portal to all federal, state and local government web resources and services.